sensor_id;sensor_type;location;lat;lon;timestamp;P1;durP1;ratioP1;P2;durP2;ratioP2
68365;SDS011;55283;51.466;5.478;2022-09-09T00:04:41;1.67;;;0.80;;
68365;SDS011;55283;51.466;5.478;2022-09-09T00:07:25;1.43;;;1.00;;
68365;SDS011;55283;51.466;5.478;2022-09-09T00:10:20;1.20;;;0.90;;
68365;SDS011;55283;51.466;5.478;2022-09-09T00:12:57;0.90;;;0.80;;
68365;SDS011;55283;51.466;5.478;2022-09-09T00:15:27;0.80;;;0.80;;
68365;SDS011;55283;51.466;5.478;2022-09-09T00:20:39;1.27;;;0.90;;
68365;SDS011;55283;51.466;5.478;2022-09-09T00:23:30;1.00;;;0.90;;
68365;SDS011;55283;51.466;5.478;2022-09-09T00:29:27;1.25;;;1.00;;
68365;SDS011;55283;51.466;5.478;2022-09-09T00:31:31;1.40;;;1.00;;
68365;SDS011;55283;51.466;5.478;2022-09-09T00:33:58;0.90;;;0.90;;
68365;SDS011;55283;51.466;5.478;2022-09-09T00:36:29;0.80;;;0.80;;
68365;SDS011;55283;51.466;5.478;2022-09-09T00:38:59;1.08;;;0.82;;
68365;SDS011;55283;51.466;5.478;2022-09-09T00:44:03;2.25;;;0.80;;
68365;SDS011;55283;51.466;5.478;2022-09-09T00:57:32;1.35;;;0.80;;
68365;SDS011;55283;51.466;5.478;2022-09-09T01:00:14;1.13;;;0.70;;
68365;SDS011;55283;51.466;5.478;2022-09-09T01:11:20;1.23;;;0.80;;
68365;SDS011;55283;51.466;5.478;2022-09-09T01:13:45;0.90;;;0.70;;
68365;SDS011;55283;51.466;5.478;2022-09-09T01:16:17;0.75;;;0.70;;
68365;SDS011;55283;51.466;5.478;2022-09-09T01:18:46;0.80;;;0.70;;
68365;SDS011;55283;51.466;5.478;2022-09-09T01:21:26;1.48;;;0.73;;
68365;SDS011;55283;51.466;5.478;2022-09-09T01:24:29;1.20;;;0.80;;
68365;SDS011;55283;51.466;5.478;2022-09-09T01:27:02;0.70;;;0.70;;
68365;SDS011;55283;51.466;5.478;2022-09-09T01:29:30;1.50;;;0.93;;
68365;SDS011;55283;51.466;5.478;2022-09-09T01:34:21;1.00;;;0.90;;
68365;SDS011;55283;51.466;5.478;2022-09-09T01:36:53;1.05;;;0.75;;
68365;SDS011;55283;51.466;5.478;2022-09-09T01:39:24;1.70;;;0.90;;
68365;SDS011;55283;51.466;5.478;2022-09-09T01:41:51;1.25;;;0.80;;
68365;SDS011;55283;51.466;5.478;2022-09-09T01:44:19;1.33;;;0.75;;
68365;SDS011;55283;51.466;5.478;2022-09-09T01:46:45;1.38;;;0.70;;
68365;SDS011;55283;51.466;5.478;2022-09-09T01:49:11;1.47;;;0.90;;
68365;SDS011;55283;51.466;5.478;2022-09-09T01:51:37;0.80;;;0.70;;
68365;SDS011;55283;51.466;5.478;2022-09-09T01:54:05;0.95;;;0.70;;
68365;SDS011;55283;51.466;5.478;2022-09-09T02:00:19;2.67;;;0.90;;
68365;SDS011;55283;51.466;5.478;2022-09-09T02:02:30;1.27;;;0.77;;
68365;SDS011;55283;51.466;5.478;2022-09-09T02:07:47;1.52;;;0.93;;
68365;SDS011;55283;51.466;5.478;2022-09-09T02:10:19;1.33;;;1.00;;
68365;SDS011;55283;51.466;5.478;2022-09-09T02:12:50;1.23;;;0.90;;
68365;SDS011;55283;51.466;5.478;2022-09-09T02:15:32;1.00;;;0.70;;
68365;SDS011;55283;51.466;5.478;2022-09-09T02:18:13;2.33;;;0.85;;
68365;SDS011;55283;51.466;5.478;2022-09-09T02:20:43;1.00;;;0.70;;
68365;SDS011;55283;51.466;5.478;2022-09-09T02:23:11;1.07;;;0.80;;
68365;SDS011;55283;51.466;5.478;2022-09-09T02:25:39;1.35;;;0.90;;
68365;SDS011;55283;51.466;5.478;2022-09-09T02:28:07;3.33;;;0.70;;
68365;SDS011;55283;51.466;5.478;2022-09-09T02:30:35;0.80;;;0.60;;
68365;SDS011;55283;51.466;5.478;2022-09-09T02:33:03;1.90;;;0.90;;
68365;SDS011;55283;51.466;5.478;2022-09-09T02:35:32;1.27;;;0.80;;
68365;SDS011;55283;51.466;5.478;2022-09-09T02:38:04;1.03;;;0.80;;
68365;SDS011;55283;51.466;5.478;2022-09-09T02:40:32;1.00;;;0.85;;
68365;SDS011;55283;51.466;5.478;2022-09-09T02:42:58;1.07;;;0.87;;
68365;SDS011;55283;51.466;5.478;2022-09-09T02:45:25;1.48;;;0.90;;
68365;SDS011;55283;51.466;5.478;2022-09-09T02:50:35;1.43;;;0.90;;
68365;SDS011;55283;51.466;5.478;2022-09-09T02:53:30;1.23;;;0.70;;
68365;SDS011;55283;51.466;5.478;2022-09-09T02:56:05;1.55;;;0.70;;
68365;SDS011;55283;51.466;5.478;2022-09-09T02:58:44;0.90;;;0.70;;
68365;SDS011;55283;51.466;5.478;2022-09-09T03:01:11;1.13;;;0.80;;
68365;SDS011;55283;51.466;5.478;2022-09-09T03:03:37;1.70;;;0.85;;
68365;SDS011;55283;51.466;5.478;2022-09-09T03:06:03;0.80;;;0.70;;
68365;SDS011;55283;51.466;5.478;2022-09-09T03:08:30;0.88;;;0.65;;
68365;SDS011;55283;51.466;5.478;2022-09-09T03:10:57;1.53;;;0.80;;
68365;SDS011;55283;51.466;5.478;2022-09-09T03:13:26;1.45;;;0.60;;
68365;SDS011;55283;51.466;5.478;2022-09-09T03:15:51;1.40;;;0.93;;
68365;SDS011;55283;51.466;5.478;2022-09-09T03:18:16;1.47;;;0.70;;
68365;SDS011;55283;51.466;5.478;2022-09-09T03:20:42;1.23;;;0.80;;
68365;SDS011;55283;51.466;5.478;2022-09-09T03:23:08;1.17;;;0.77;;
68365;SDS011;55283;51.466;5.478;2022-09-09T03:25:33;1.90;;;0.87;;
68365;SDS011;55283;51.466;5.478;2022-09-09T03:28:00;1.15;;;0.80;;
68365;SDS011;55283;51.466;5.478;2022-09-09T03:30:26;1.15;;;0.75;;
68365;SDS011;55283;51.466;5.478;2022-09-09T03:32:52;2.22;;;0.80;;
68365;SDS011;55283;51.466;5.478;2022-09-09T03:35:18;1.60;;;0.90;;
68365;SDS011;55283;51.466;5.478;2022-09-09T03:37:44;0.80;;;0.70;;
68365;SDS011;55283;51.466;5.478;2022-09-09T03:40:10;1.33;;;0.73;;
68365;SDS011;55283;51.466;5.478;2022-09-09T03:42:37;1.93;;;0.80;;
68365;SDS011;55283;51.466;5.478;2022-09-09T03:45:06;1.38;;;0.80;;
68365;SDS011;55283;51.466;5.478;2022-09-09T03:47:34;1.77;;;0.80;;
68365;SDS011;55283;51.466;5.478;2022-09-09T03:49:59;1.40;;;0.80;;
68365;SDS011;55283;51.466;5.478;2022-09-09T03:52:25;1.77;;;0.70;;
68365;SDS011;55283;51.466;5.478;2022-09-09T03:54:51;1.03;;;0.70;;
68365;SDS011;55283;51.466;5.478;2022-09-09T03:57:17;1.42;;;0.77;;
68365;SDS011;55283;51.466;5.478;2022-09-09T03:59:43;2.05;;;0.80;;
68365;SDS011;55283;51.466;5.478;2022-09-09T04:02:09;1.90;;;0.80;;
68365;SDS011;55283;51.466;5.478;2022-09-09T04:04:34;2.83;;;0.90;;
68365;SDS011;55283;51.466;5.478;2022-09-09T04:06:59;1.93;;;0.80;;
68365;SDS011;55283;51.466;5.478;2022-09-09T04:09:25;1.10;;;0.70;;
68365;SDS011;55283;51.466;5.478;2022-09-09T04:11:51;1.00;;;0.80;;
68365;SDS011;55283;51.466;5.478;2022-09-09T04:14:18;1.33;;;0.80;;
68365;SDS011;55283;51.466;5.478;2022-09-09T04:16:43;1.10;;;0.80;;
68365;SDS011;55283;51.466;5.478;2022-09-09T04:19:10;0.70;;;0.65;;
68365;SDS011;55283;51.466;5.478;2022-09-09T04:21:38;1.27;;;0.85;;
68365;SDS011;55283;51.466;5.478;2022-09-09T04:24:05;1.30;;;0.70;;
68365;SDS011;55283;51.466;5.478;2022-09-09T04:26:32;2.05;;;1.23;;
68365;SDS011;55283;51.466;5.478;2022-09-09T04:28:58;1.63;;;0.80;;
68365;SDS011;55283;51.466;5.478;2022-09-09T04:31:24;1.33;;;0.80;;
68365;SDS011;55283;51.466;5.478;2022-09-09T04:33:49;2.92;;;1.13;;
68365;SDS011;55283;51.466;5.478;2022-09-09T04:36:15;1.97;;;1.00;;
68365;SDS011;55283;51.466;5.478;2022-09-09T04:38:41;1.20;;;0.90;;
68365;SDS011;55283;51.466;5.478;2022-09-09T04:41:09;2.38;;;0.95;;
68365;SDS011;55283;51.466;5.478;2022-09-09T04:43:36;1.30;;;0.83;;
68365;SDS011;55283;51.466;5.478;2022-09-09T04:46:02;1.48;;;0.70;;
68365;SDS011;55283;51.466;5.478;2022-09-09T04:48:28;1.42;;;0.90;;
68365;SDS011;55283;51.466;5.478;2022-09-09T04:50:57;1.10;;;0.77;;
68365;SDS011;55283;51.466;5.478;2022-09-09T04:53:24;2.03;;;0.90;;
68365;SDS011;55283;51.466;5.478;2022-09-09T04:55:51;1.52;;;0.90;;
68365;SDS011;55283;51.466;5.478;2022-09-09T04:58:17;1.70;;;0.90;;
68365;SDS011;55283;51.466;5.478;2022-09-09T05:00:43;1.70;;;1.00;;
68365;SDS011;55283;51.466;5.478;2022-09-09T05:03:08;1.57;;;1.00;;
68365;SDS011;55283;51.466;5.478;2022-09-09T05:05:34;1.90;;;1.00;;
68365;SDS011;55283;51.466;5.478;2022-09-09T05:08:03;1.80;;;0.88;;
68365;SDS011;55283;51.466;5.478;2022-09-09T05:10:31;2.42;;;0.93;;
68365;SDS011;55283;51.466;5.478;2022-09-09T05:12:57;1.70;;;0.93;;
68365;SDS011;55283;51.466;5.478;2022-09-09T05:15:23;1.43;;;0.90;;
68365;SDS011;55283;51.466;5.478;2022-09-09T05:17:48;1.53;;;0.80;;
68365;SDS011;55283;51.466;5.478;2022-09-09T05:20:13;1.73;;;1.10;;
68365;SDS011;55283;51.466;5.478;2022-09-09T05:22:39;1.13;;;1.00;;
68365;SDS011;55283;51.466;5.478;2022-09-09T05:25:05;3.60;;;1.02;;
68365;SDS011;55283;51.466;5.478;2022-09-09T05:27:33;1.05;;;0.85;;
68365;SDS011;55283;51.466;5.478;2022-09-09T05:29:59;1.20;;;0.80;;
68365;SDS011;55283;51.466;5.478;2022-09-09T05:32:24;3.53;;;0.90;;
68365;SDS011;55283;51.466;5.478;2022-09-09T05:34:50;2.10;;;0.90;;
68365;SDS011;55283;51.466;5.478;2022-09-09T05:37:16;5.00;;;1.00;;
68365;SDS011;55283;51.466;5.478;2022-09-09T05:39:41;2.00;;;0.80;;
68365;SDS011;55283;51.466;5.478;2022-09-09T05:42:07;1.47;;;1.00;;
68365;SDS011;55283;51.466;5.478;2022-09-09T05:44:32;3.00;;;1.00;;
68365;SDS011;55283;51.466;5.478;2022-09-09T05:46:58;1.65;;;0.90;;
68365;SDS011;55283;51.466;5.478;2022-09-09T05:49:23;1.23;;;0.83;;
68365;SDS011;55283;51.466;5.478;2022-09-09T05:51:49;1.47;;;0.90;;
68365;SDS011;55283;51.466;5.478;2022-09-09T05:54:15;3.08;;;1.02;;
68365;SDS011;55283;51.466;5.478;2022-09-09T05:56:41;3.17;;;0.90;;
68365;SDS011;55283;51.466;5.478;2022-09-09T05:59:06;1.55;;;1.00;;
68365;SDS011;55283;51.466;5.478;2022-09-09T06:01:33;1.40;;;0.90;;
68365;SDS011;55283;51.466;5.478;2022-09-09T06:04:00;7.97;;;1.00;;
68365;SDS011;55283;51.466;5.478;2022-09-09T06:06:27;2.23;;;0.90;;
68365;SDS011;55283;51.466;5.478;2022-09-09T06:09:02;2.17;;;1.00;;
68365;SDS011;55283;51.466;5.478;2022-09-09T06:11:29;4.25;;;1.00;;
68365;SDS011;55283;51.466;5.478;2022-09-09T06:13:58;4.80;;;1.07;;
68365;SDS011;55283;51.466;5.478;2022-09-09T06:16:25;4.05;;;1.10;;
68365;SDS011;55283;51.466;5.478;2022-09-09T06:18:52;3.13;;;1.10;;
68365;SDS011;55283;51.466;5.478;2022-09-09T06:21:21;6.63;;;1.30;;
68365;SDS011;55283;51.466;5.478;2022-09-09T06:23:46;3.40;;;1.40;;
68365;SDS011;55283;51.466;5.478;2022-09-09T06:28:43;6.15;;;1.25;;
68365;SDS011;55283;51.466;5.478;2022-09-09T06:31:10;3.83;;;1.30;;
68365;SDS011;55283;51.466;5.478;2022-09-09T06:33:39;4.65;;;1.30;;
68365;SDS011;55283;51.466;5.478;2022-09-09T06:36:13;5.72;;;1.48;;
68365;SDS011;55283;51.466;5.478;2022-09-09T06:38:43;4.20;;;1.43;;
68365;SDS011;55283;51.466;5.478;2022-09-09T06:41:10;6.40;;;1.50;;
68365;SDS011;55283;51.466;5.478;2022-09-09T06:43:37;4.25;;;1.50;;
68365;SDS011;55283;51.466;5.478;2022-09-09T06:46:08;4.63;;;1.47;;
68365;SDS011;55283;51.466;5.478;2022-09-09T06:48:35;5.55;;;1.80;;
68365;SDS011;55283;51.466;5.478;2022-09-09T06:51:04;5.32;;;1.60;;
68365;SDS011;55283;51.466;5.478;2022-09-09T06:53:36;4.77;;;1.47;;
68365;SDS011;55283;51.466;5.478;2022-09-09T06:56:25;5.38;;;1.63;;
68365;SDS011;55283;51.466;5.478;2022-09-09T06:58:53;6.22;;;1.67;;
68365;SDS011;55283;51.466;5.478;2022-09-09T07:01:21;5.67;;;1.77;;
68365;SDS011;55283;51.466;5.478;2022-09-09T07:03:50;5.57;;;1.50;;
68365;SDS011;55283;51.466;5.478;2022-09-09T07:06:21;4.00;;;1.60;;
68365;SDS011;55283;51.466;5.478;2022-09-09T07:08:52;7.13;;;1.80;;
68365;SDS011;55283;51.466;5.478;2022-09-09T07:11:20;4.20;;;1.47;;
68365;SDS011;55283;51.466;5.478;2022-09-09T07:13:47;5.45;;;1.55;;
68365;SDS011;55283;51.466;5.478;2022-09-09T07:16:14;5.55;;;1.50;;
68365;SDS011;55283;51.466;5.478;2022-09-09T07:18:42;3.97;;;1.50;;
68365;SDS011;55283;51.466;5.478;2022-09-09T07:21:11;5.97;;;1.75;;
68365;SDS011;55283;51.466;5.478;2022-09-09T07:23:39;4.50;;;1.45;;
68365;SDS011;55283;51.466;5.478;2022-09-09T07:26:09;4.97;;;1.80;;
68365;SDS011;55283;51.466;5.478;2022-09-09T07:28:45;5.22;;;1.58;;
68365;SDS011;55283;51.466;5.478;2022-09-09T07:31:15;4.95;;;1.77;;
68365;SDS011;55283;51.466;5.478;2022-09-09T07:33:42;4.40;;;1.50;;
68365;SDS011;55283;51.466;5.478;2022-09-09T07:36:10;4.40;;;1.40;;
68365;SDS011;55283;51.466;5.478;2022-09-09T07:38:44;7.10;;;2.03;;
68365;SDS011;55283;51.466;5.478;2022-09-09T07:41:12;6.13;;;1.85;;
68365;SDS011;55283;51.466;5.478;2022-09-09T07:43:41;6.53;;;2.00;;
68365;SDS011;55283;51.466;5.478;2022-09-09T07:46:09;6.43;;;1.67;;
68365;SDS011;55283;51.466;5.478;2022-09-09T07:48:35;4.68;;;1.30;;
68365;SDS011;55283;51.466;5.478;2022-09-09T07:51:11;3.80;;;1.70;;
68365;SDS011;55283;51.466;5.478;2022-09-09T07:53:45;4.38;;;1.58;;
68365;SDS011;55283;51.466;5.478;2022-09-09T07:56:13;4.45;;;1.50;;
68365;SDS011;55283;51.466;5.478;2022-09-09T07:58:41;5.70;;;1.67;;
68365;SDS011;55283;51.466;5.478;2022-09-09T08:01:10;3.83;;;1.67;;
68365;SDS011;55283;51.466;5.478;2022-09-09T08:03:39;4.82;;;1.70;;
68365;SDS011;55283;51.466;5.478;2022-09-09T08:06:06;6.50;;;1.40;;
68365;SDS011;55283;51.466;5.478;2022-09-09T08:08:33;3.58;;;1.40;;
68365;SDS011;55283;51.466;5.478;2022-09-09T08:11:01;4.67;;;1.40;;
68365;SDS011;55283;51.466;5.478;2022-09-09T08:13:28;4.22;;;1.50;;
68365;SDS011;55283;51.466;5.478;2022-09-09T08:16:03;4.25;;;1.40;;
68365;SDS011;55283;51.466;5.478;2022-09-09T08:18:32;4.13;;;1.53;;
68365;SDS011;55283;51.466;5.478;2022-09-09T08:20:58;5.00;;;1.50;;
68365;SDS011;55283;51.466;5.478;2022-09-09T08:23:30;5.60;;;1.60;;
68365;SDS011;55283;51.466;5.478;2022-09-09T08:26:02;5.40;;;1.50;;
68365;SDS011;55283;51.466;5.478;2022-09-09T08:28:29;7.10;;;1.80;;
68365;SDS011;55283;51.466;5.478;2022-09-09T08:30:56;7.78;;;1.80;;
68365;SDS011;55283;51.466;5.478;2022-09-09T08:33:21;10.57;;;1.90;;
68365;SDS011;55283;51.466;5.478;2022-09-09T08:35:50;5.90;;;1.80;;
68365;SDS011;55283;51.466;5.478;2022-09-09T08:38:16;7.93;;;1.85;;
68365;SDS011;55283;51.466;5.478;2022-09-09T08:40:42;5.27;;;1.60;;
68365;SDS011;55283;51.466;5.478;2022-09-09T08:43:14;4.32;;;1.58;;
68365;SDS011;55283;51.466;5.478;2022-09-09T08:46:04;7.43;;;1.80;;
68365;SDS011;55283;51.466;5.478;2022-09-09T08:48:49;5.83;;;1.80;;
68365;SDS011;55283;51.466;5.478;2022-09-09T08:51:24;6.05;;;1.52;;
68365;SDS011;55283;51.466;5.478;2022-09-09T08:53:53;5.13;;;1.67;;
68365;SDS011;55283;51.466;5.478;2022-09-09T08:56:23;6.60;;;1.70;;
68365;SDS011;55283;51.466;5.478;2022-09-09T08:58:54;5.18;;;1.70;;
68365;SDS011;55283;51.466;5.478;2022-09-09T09:04:05;5.85;;;1.80;;
68365;SDS011;55283;51.466;5.478;2022-09-09T09:06:53;9.70;;;1.70;;
68365;SDS011;55283;51.466;5.478;2022-09-09T09:09:38;10.85;;;1.80;;
68365;SDS011;55283;51.466;5.478;2022-09-09T09:12:15;6.03;;;1.80;;
68365;SDS011;55283;51.466;5.478;2022-09-09T09:14:45;6.93;;;1.77;;
68365;SDS011;55283;51.466;5.478;2022-09-09T09:17:13;7.90;;;1.60;;
68365;SDS011;55283;51.466;5.478;2022-09-09T09:19:42;5.85;;;1.55;;
68365;SDS011;55283;51.466;5.478;2022-09-09T09:22:16;7.97;;;1.80;;
68365;SDS011;55283;51.466;5.478;2022-09-09T09:29:59;6.15;;;1.70;;
68365;SDS011;55283;51.466;5.478;2022-09-09T09:32:27;8.63;;;1.73;;
68365;SDS011;55283;51.466;5.478;2022-09-09T09:34:56;7.03;;;1.77;;
68365;SDS011;55283;51.466;5.478;2022-09-09T09:37:26;7.93;;;1.80;;
68365;SDS011;55283;51.466;5.478;2022-09-09T09:39:55;5.57;;;1.63;;
68365;SDS011;55283;51.466;5.478;2022-09-09T09:42:20;6.07;;;1.90;;
68365;SDS011;55283;51.466;5.478;2022-09-09T09:44:46;9.17;;;1.90;;
68365;SDS011;55283;51.466;5.478;2022-09-09T09:47:12;6.40;;;1.70;;
68365;SDS011;55283;51.466;5.478;2022-09-09T09:49:52;8.48;;;1.80;;
68365;SDS011;55283;51.466;5.478;2022-09-09T09:52:21;7.80;;;1.92;;
68365;SDS011;55283;51.466;5.478;2022-09-09T09:54:49;7.17;;;1.73;;
68365;SDS011;55283;51.466;5.478;2022-09-09T09:57:16;6.63;;;1.70;;
68365;SDS011;55283;51.466;5.478;2022-09-09T09:59:43;6.40;;;1.75;;
68365;SDS011;55283;51.466;5.478;2022-09-09T10:07:47;5.10;;;1.60;;
68365;SDS011;55283;51.466;5.478;2022-09-09T10:10:26;5.50;;;1.50;;
68365;SDS011;55283;51.466;5.478;2022-09-09T10:13:11;5.70;;;1.67;;
68365;SDS011;55283;51.466;5.478;2022-09-09T10:15:56;7.43;;;1.33;;
68365;SDS011;55283;51.466;5.478;2022-09-09T10:18:38;7.07;;;1.67;;
68365;SDS011;55283;51.466;5.478;2022-09-09T10:21:20;9.68;;;1.63;;
68365;SDS011;55283;51.466;5.478;2022-09-09T10:26:48;4.43;;;1.55;;
68365;SDS011;55283;51.466;5.478;2022-09-09T10:29:38;6.63;;;1.63;;
68365;SDS011;55283;51.466;5.478;2022-09-09T10:35:24;6.90;;;1.73;;
68365;SDS011;55283;51.466;5.478;2022-09-09T10:40:35;8.10;;;1.70;;
68365;SDS011;55283;51.466;5.478;2022-09-09T10:56:48;7.88;;;1.60;;
68365;SDS011;55283;51.466;5.478;2022-09-09T10:59:20;4.83;;;1.60;;
68365;SDS011;55283;51.466;5.478;2022-09-09T11:01:57;5.55;;;1.67;;
68365;SDS011;55283;51.466;5.478;2022-09-09T11:04:29;3.72;;;1.40;;
68365;SDS011;55283;51.466;5.478;2022-09-09T11:07:00;3.43;;;1.37;;
68365;SDS011;55283;51.466;5.478;2022-09-09T11:09:31;5.75;;;1.40;;
68365;SDS011;55283;51.466;5.478;2022-09-09T11:12:01;3.75;;;1.17;;
68365;SDS011;55283;51.466;5.478;2022-09-09T11:14:32;4.88;;;1.50;;
68365;SDS011;55283;51.466;5.478;2022-09-09T11:17:26;5.70;;;1.70;;
68365;SDS011;55283;51.466;5.478;2022-09-09T11:19:58;3.03;;;1.27;;
68365;SDS011;55283;51.466;5.478;2022-09-09T11:22:37;3.47;;;1.30;;
68365;SDS011;55283;51.466;5.478;2022-09-09T11:25:18;5.43;;;1.58;;
68365;SDS011;55283;51.466;5.478;2022-09-09T11:28:16;5.03;;;1.55;;
68365;SDS011;55283;51.466;5.478;2022-09-09T11:41:53;3.93;;;1.30;;
68365;SDS011;55283;51.466;5.478;2022-09-09T11:44:28;4.78;;;1.30;;
68365;SDS011;55283;51.466;5.478;2022-09-09T11:46:55;6.05;;;1.30;;
68365;SDS011;55283;51.466;5.478;2022-09-09T11:52:20;2.70;;;1.13;;
68365;SDS011;55283;51.466;5.478;2022-09-09T11:55:00;4.33;;;1.40;;
68365;SDS011;55283;51.466;5.478;2022-09-09T11:57:48;3.22;;;1.35;;
68365;SDS011;55283;51.466;5.478;2022-09-09T12:03:02;4.70;;;1.40;;
68365;SDS011;55283;51.466;5.478;2022-09-09T12:05:35;4.20;;;1.50;;
68365;SDS011;55283;51.466;5.478;2022-09-09T12:08:04;4.05;;;1.30;;
68365;SDS011;55283;51.466;5.478;2022-09-09T12:10:30;3.07;;;1.33;;
68365;SDS011;55283;51.466;5.478;2022-09-09T12:13:08;3.30;;;1.30;;
68365;SDS011;55283;51.466;5.478;2022-09-09T12:15:48;3.60;;;1.30;;
68365;SDS011;55283;51.466;5.478;2022-09-09T12:31:42;4.45;;;1.50;;
68365;SDS011;55283;51.466;5.478;2022-09-09T12:34:17;4.80;;;1.58;;
68365;SDS011;55283;51.466;5.478;2022-09-09T12:36:53;3.20;;;1.17;;
68365;SDS011;55283;51.466;5.478;2022-09-09T12:39:29;4.28;;;1.30;;
68365;SDS011;55283;51.466;5.478;2022-09-09T12:41:58;3.42;;;1.33;;
68365;SDS011;55283;51.466;5.478;2022-09-09T12:44:25;2.23;;;1.30;;
68365;SDS011;55283;51.466;5.478;2022-09-09T12:46:53;3.75;;;1.30;;
68365;SDS011;55283;51.466;5.478;2022-09-09T12:49:32;2.88;;;1.30;;
68365;SDS011;55283;51.466;5.478;2022-09-09T12:52:13;3.45;;;1.40;;
68365;SDS011;55283;51.466;5.478;2022-09-09T12:54:47;3.93;;;1.30;;
68365;SDS011;55283;51.466;5.478;2022-09-09T12:57:13;3.78;;;1.50;;
68365;SDS011;55283;51.466;5.478;2022-09-09T12:59:41;4.80;;;1.10;;
68365;SDS011;55283;51.466;5.478;2022-09-09T13:02:20;3.50;;;1.30;;
68365;SDS011;55283;51.466;5.478;2022-09-09T13:04:47;5.32;;;1.48;;
68365;SDS011;55283;51.466;5.478;2022-09-09T13:07:15;2.25;;;1.20;;
68365;SDS011;55283;51.466;5.478;2022-09-09T13:09:41;6.40;;;1.37;;
68365;SDS011;55283;51.466;5.478;2022-09-09T13:12:10;3.88;;;1.60;;
68365;SDS011;55283;51.466;5.478;2022-09-09T13:14:39;3.35;;;1.30;;
68365;SDS011;55283;51.466;5.478;2022-09-09T13:20:04;3.07;;;1.30;;
68365;SDS011;55283;51.466;5.478;2022-09-09T13:22:31;3.03;;;1.30;;
68365;SDS011;55283;51.466;5.478;2022-09-09T13:27:32;2.40;;;1.30;;
68365;SDS011;55283;51.466;5.478;2022-09-09T13:30:19;2.28;;;1.17;;
68365;SDS011;55283;51.466;5.478;2022-09-09T13:33:06;4.18;;;1.25;;
68365;SDS011;55283;51.466;5.478;2022-09-09T13:35:34;2.93;;;1.23;;
68365;SDS011;55283;51.466;5.478;2022-09-09T13:38:12;5.63;;;1.30;;
68365;SDS011;55283;51.466;5.478;2022-09-09T13:40:39;4.20;;;1.30;;
68365;SDS011;55283;51.466;5.478;2022-09-09T13:43:05;4.10;;;1.50;;
68365;SDS011;55283;51.466;5.478;2022-09-09T13:45:51;4.00;;;1.40;;
68365;SDS011;55283;51.466;5.478;2022-09-09T13:48:18;3.90;;;1.30;;
68365;SDS011;55283;51.466;5.478;2022-09-09T13:50:53;3.30;;;1.30;;
68365;SDS011;55283;51.466;5.478;2022-09-09T13:53:19;3.17;;;1.10;;
68365;SDS011;55283;51.466;5.478;2022-09-09T13:55:44;4.47;;;1.30;;
68365;SDS011;55283;51.466;5.478;2022-09-09T13:58:14;5.90;;;1.30;;
68365;SDS011;55283;51.466;5.478;2022-09-09T14:00:41;4.68;;;1.30;;
68365;SDS011;55283;51.466;5.478;2022-09-09T14:03:08;5.03;;;1.38;;
68365;SDS011;55283;51.466;5.478;2022-09-09T14:05:35;3.55;;;1.25;;
68365;SDS011;55283;51.466;5.478;2022-09-09T14:08:00;3.40;;;1.30;;
68365;SDS011;55283;51.466;5.478;2022-09-09T14:10:29;4.63;;;1.60;;
68365;SDS011;55283;51.466;5.478;2022-09-09T14:12:55;2.70;;;1.27;;
68365;SDS011;55283;51.466;5.478;2022-09-09T14:15:21;4.32;;;1.38;;
68365;SDS011;55283;51.466;5.478;2022-09-09T14:17:47;3.30;;;1.17;;
68365;SDS011;55283;51.466;5.478;2022-09-09T14:20:13;2.80;;;1.40;;
68365;SDS011;55283;51.466;5.478;2022-09-09T14:22:40;4.55;;;1.30;;
68365;SDS011;55283;51.466;5.478;2022-09-09T14:25:06;4.25;;;1.30;;
68365;SDS011;55283;51.466;5.478;2022-09-09T14:27:32;5.03;;;1.63;;
68365;SDS011;55283;51.466;5.478;2022-09-09T14:29:58;4.22;;;1.52;;
68365;SDS011;55283;51.466;5.478;2022-09-09T14:32:25;4.70;;;1.37;;
68365;SDS011;55283;51.466;5.478;2022-09-09T14:34:51;2.88;;;1.10;;
68365;SDS011;55283;51.466;5.478;2022-09-09T14:37:17;2.60;;;1.20;;
68365;SDS011;55283;51.466;5.478;2022-09-09T14:39:43;3.70;;;1.30;;
68365;SDS011;55283;51.466;5.478;2022-09-09T14:42:12;4.88;;;1.40;;
68365;SDS011;55283;51.466;5.478;2022-09-09T14:44:38;4.33;;;1.13;;
68365;SDS011;55283;51.466;5.478;2022-09-09T14:47:05;3.30;;;1.30;;
68365;SDS011;55283;51.466;5.478;2022-09-09T14:49:31;3.33;;;1.10;;
68365;SDS011;55283;51.466;5.478;2022-09-09T14:51:56;4.43;;;1.20;;
68365;SDS011;55283;51.466;5.478;2022-09-09T14:54:22;3.27;;;1.30;;
68365;SDS011;55283;51.466;5.478;2022-09-09T14:56:47;4.45;;;1.27;;
68365;SDS011;55283;51.466;5.478;2022-09-09T14:59:13;4.20;;;1.23;;
68365;SDS011;55283;51.466;5.478;2022-09-09T15:01:38;5.00;;;1.23;;
68365;SDS011;55283;51.466;5.478;2022-09-09T15:04:04;2.05;;;1.17;;
68365;SDS011;55283;51.466;5.478;2022-09-09T15:06:31;18.10;;;4.90;;
68365;SDS011;55283;51.466;5.478;2022-09-09T15:08:58;20.92;;;3.92;;
68365;SDS011;55283;51.466;5.478;2022-09-09T15:11:25;13.55;;;4.22;;
68365;SDS011;55283;51.466;5.478;2022-09-09T15:13:53;13.50;;;4.77;;
68365;SDS011;55283;51.466;5.478;2022-09-09T15:16:19;13.82;;;4.25;;
68365;SDS011;55283;51.466;5.478;2022-09-09T15:18:46;13.90;;;3.60;;
68365;SDS011;55283;51.466;5.478;2022-09-09T15:21:16;9.60;;;3.13;;
68365;SDS011;55283;51.466;5.478;2022-09-09T15:23:46;12.83;;;3.40;;
68365;SDS011;55283;51.466;5.478;2022-09-09T15:26:13;10.07;;;2.70;;
68365;SDS011;55283;51.466;5.478;2022-09-09T15:28:40;5.78;;;2.67;;
68365;SDS011;55283;51.466;5.478;2022-09-09T15:31:15;10.07;;;2.73;;
68365;SDS011;55283;51.466;5.478;2022-09-09T15:33:49;12.13;;;2.90;;
68365;SDS011;55283;51.466;5.478;2022-09-09T15:36:16;7.38;;;2.25;;
68365;SDS011;55283;51.466;5.478;2022-09-09T15:38:46;5.57;;;2.00;;
68365;SDS011;55283;51.466;5.478;2022-09-09T15:41:12;10.30;;;2.15;;
68365;SDS011;55283;51.466;5.478;2022-09-09T15:43:39;7.82;;;2.00;;
68365;SDS011;55283;51.466;5.478;2022-09-09T15:48:42;7.40;;;1.77;;
68365;SDS011;55283;51.466;5.478;2022-09-09T15:51:09;10.35;;;2.05;;
68365;SDS011;55283;51.466;5.478;2022-09-09T15:53:36;5.95;;;1.80;;
68365;SDS011;55283;51.466;5.478;2022-09-09T15:56:04;9.10;;;2.00;;
68365;SDS011;55283;51.466;5.478;2022-09-09T15:58:31;5.20;;;1.70;;
68365;SDS011;55283;51.466;5.478;2022-09-09T16:01:02;4.65;;;1.52;;
68365;SDS011;55283;51.466;5.478;2022-09-09T16:03:29;4.33;;;1.60;;
68365;SDS011;55283;51.466;5.478;2022-09-09T16:06:05;6.03;;;1.70;;
68365;SDS011;55283;51.466;5.478;2022-09-09T16:08:34;7.43;;;1.60;;
68365;SDS011;55283;51.466;5.478;2022-09-09T16:11:08;4.73;;;1.47;;
68365;SDS011;55283;51.466;5.478;2022-09-09T16:13:35;3.97;;;1.42;;
68365;SDS011;55283;51.466;5.478;2022-09-09T16:16:02;4.28;;;1.35;;
68365;SDS011;55283;51.466;5.478;2022-09-09T16:18:33;4.37;;;1.50;;
68365;SDS011;55283;51.466;5.478;2022-09-09T16:21:02;5.22;;;1.52;;
68365;SDS011;55283;51.466;5.478;2022-09-09T16:23:30;4.93;;;1.50;;
68365;SDS011;55283;51.466;5.478;2022-09-09T16:25:57;3.30;;;1.37;;
68365;SDS011;55283;51.466;5.478;2022-09-09T16:28:23;2.30;;;1.30;;
68365;SDS011;55283;51.466;5.478;2022-09-09T16:30:48;3.43;;;1.33;;
68365;SDS011;55283;51.466;5.478;2022-09-09T16:33:14;2.67;;;1.23;;
68365;SDS011;55283;51.466;5.478;2022-09-09T16:35:41;4.05;;;1.40;;
68365;SDS011;55283;51.466;5.478;2022-09-09T16:38:06;2.97;;;1.40;;
68365;SDS011;55283;51.466;5.478;2022-09-09T16:40:35;4.40;;;1.38;;
68365;SDS011;55283;51.466;5.478;2022-09-09T16:43:01;4.10;;;1.50;;
68365;SDS011;55283;51.466;5.478;2022-09-09T16:45:27;4.00;;;1.20;;
68365;SDS011;55283;51.466;5.478;2022-09-09T16:47:53;4.33;;;1.40;;
68365;SDS011;55283;51.466;5.478;2022-09-09T16:50:18;2.63;;;1.33;;
68365;SDS011;55283;51.466;5.478;2022-09-09T16:52:44;3.57;;;1.10;;
68365;SDS011;55283;51.466;5.478;2022-09-09T16:55:10;3.03;;;1.27;;
68365;SDS011;55283;51.466;5.478;2022-09-09T16:57:35;3.43;;;1.30;;
68365;SDS011;55283;51.466;5.478;2022-09-09T17:00:01;2.03;;;1.10;;
68365;SDS011;55283;51.466;5.478;2022-09-09T17:02:29;3.08;;;1.10;;